sensor_id;sensor_type;location;lat;lon;timestamp;P1;durP1;ratioP1;P2;durP2;ratioP2
16531;SDS011;8378;57.698;11.958;2022-11-20T00:02:21;1.38;;;1.10;;
16531;SDS011;8378;57.698;11.958;2022-11-20T00:04:46;1.40;;;1.30;;
16531;SDS011;8378;57.698;11.958;2022-11-20T00:07:12;1.38;;;1.23;;
16531;SDS011;8378;57.698;11.958;2022-11-20T00:09:37;1.45;;;1.30;;
16531;SDS011;8378;57.698;11.958;2022-11-20T00:12:03;1.38;;;1.20;;
16531;SDS011;8378;57.698;11.958;2022-11-20T00:14:29;1.25;;;1.13;;
16531;SDS011;8378;57.698;11.958;2022-11-20T00:16:54;1.42;;;1.20;;
16531;SDS011;8378;57.698;11.958;2022-11-20T00:19:20;1.30;;;1.20;;
16531;SDS011;8378;57.698;11.958;2022-11-20T00:21:45;1.30;;;1.20;;
16531;SDS011;8378;57.698;11.958;2022-11-20T00:24:12;2.75;;;1.20;;
16531;SDS011;8378;57.698;11.958;2022-11-20T00:26:38;1.20;;;1.10;;
16531;SDS011;8378;57.698;11.958;2022-11-20T00:29:03;1.35;;;1.17;;
16531;SDS011;8378;57.698;11.958;2022-11-20T00:31:30;1.20;;;1.10;;
16531;SDS011;8378;57.698;11.958;2022-11-20T00:33:56;1.17;;;1.08;;
16531;SDS011;8378;57.698;11.958;2022-11-20T00:36:25;2.28;;;1.10;;
16531;SDS011;8378;57.698;11.958;2022-11-20T00:38:52;1.30;;;1.20;;
16531;SDS011;8378;57.698;11.958;2022-11-20T00:41:20;1.33;;;1.23;;
16531;SDS011;8378;57.698;11.958;2022-11-20T00:43:46;1.20;;;1.10;;
16531;SDS011;8378;57.698;11.958;2022-11-20T00:46:15;1.13;;;1.02;;
16531;SDS011;8378;57.698;11.958;2022-11-20T00:48:42;1.20;;;1.10;;
16531;SDS011;8378;57.698;11.958;2022-11-20T00:51:09;1.25;;;1.15;;
16531;SDS011;8378;57.698;11.958;2022-11-20T00:53:37;1.20;;;1.10;;
16531;SDS011;8378;57.698;11.958;2022-11-20T00:56:04;1.20;;;1.10;;
16531;SDS011;8378;57.698;11.958;2022-11-20T00:58:33;1.20;;;1.10;;
16531;SDS011;8378;57.698;11.958;2022-11-20T01:01:00;1.30;;;1.20;;
16531;SDS011;8378;57.698;11.958;2022-11-20T01:03:31;1.27;;;1.08;;
16531;SDS011;8378;57.698;11.958;2022-11-20T01:06:05;1.42;;;1.20;;
16531;SDS011;8378;57.698;11.958;2022-11-20T01:08:34;1.30;;;1.20;;
16531;SDS011;8378;57.698;11.958;2022-11-20T01:11:01;1.20;;;1.10;;
16531;SDS011;8378;57.698;11.958;2022-11-20T01:13:28;1.27;;;1.17;;
16531;SDS011;8378;57.698;11.958;2022-11-20T01:16:07;1.35;;;1.25;;
16531;SDS011;8378;57.698;11.958;2022-11-20T01:18:38;1.33;;;1.13;;
16531;SDS011;8378;57.698;11.958;2022-11-20T01:21:07;1.58;;;1.33;;
16531;SDS011;8378;57.698;11.958;2022-11-20T01:23:39;1.38;;;1.27;;
16531;SDS011;8378;57.698;11.958;2022-11-20T01:26:07;1.30;;;1.20;;
16531;SDS011;8378;57.698;11.958;2022-11-20T01:28:34;1.30;;;1.20;;
16531;SDS011;8378;57.698;11.958;2022-11-20T01:31:00;1.20;;;1.10;;
16531;SDS011;8378;57.698;11.958;2022-11-20T01:33:26;1.00;;;0.98;;
16531;SDS011;8378;57.698;11.958;2022-11-20T01:35:52;1.10;;;1.02;;
16531;SDS011;8378;57.698;11.958;2022-11-20T01:38:18;1.30;;;1.20;;
16531;SDS011;8378;57.698;11.958;2022-11-20T01:40:54;1.10;;;1.00;;
16531;SDS011;8378;57.698;11.958;2022-11-20T01:43:20;1.20;;;1.10;;
16531;SDS011;8378;57.698;11.958;2022-11-20T01:51:44;1.58;;;1.10;;
16531;SDS011;8378;57.698;11.958;2022-11-20T01:54:17;1.30;;;1.20;;
16531;SDS011;8378;57.698;11.958;2022-11-20T01:56:54;1.27;;;1.17;;
16531;SDS011;8378;57.698;11.958;2022-11-20T01:59:22;1.15;;;1.05;;
16531;SDS011;8378;57.698;11.958;2022-11-20T02:01:50;1.30;;;1.20;;
16531;SDS011;8378;57.698;11.958;2022-11-20T02:04:16;1.00;;;1.00;;
16531;SDS011;8378;57.698;11.958;2022-11-20T02:06:42;1.42;;;1.20;;
16531;SDS011;8378;57.698;11.958;2022-11-20T02:09:19;0.90;;;0.90;;
16531;SDS011;8378;57.698;11.958;2022-11-20T02:11:45;1.30;;;1.20;;
16531;SDS011;8378;57.698;11.958;2022-11-20T02:14:11;1.15;;;1.05;;
16531;SDS011;8378;57.698;11.958;2022-11-20T02:16:37;1.20;;;1.10;;
16531;SDS011;8378;57.698;11.958;2022-11-20T02:19:09;1.10;;;1.00;;
16531;SDS011;8378;57.698;11.958;2022-11-20T02:21:59;1.17;;;1.05;;
16531;SDS011;8378;57.698;11.958;2022-11-20T02:24:32;0.93;;;0.93;;
16531;SDS011;8378;57.698;11.958;2022-11-20T02:27:03;1.00;;;1.00;;
16531;SDS011;8378;57.698;11.958;2022-11-20T02:29:58;1.20;;;1.10;;
16531;SDS011;8378;57.698;11.958;2022-11-20T02:32:28;1.05;;;0.98;;
16531;SDS011;8378;57.698;11.958;2022-11-20T02:34:54;1.10;;;1.00;;
16531;SDS011;8378;57.698;11.958;2022-11-20T02:37:20;1.02;;;0.98;;
16531;SDS011;8378;57.698;11.958;2022-11-20T02:39:47;1.13;;;1.00;;
16531;SDS011;8378;57.698;11.958;2022-11-20T02:42:16;1.20;;;1.00;;
16531;SDS011;8378;57.698;11.958;2022-11-20T02:44:42;1.20;;;1.10;;
16531;SDS011;8378;57.698;11.958;2022-11-20T02:47:07;0.98;;;0.95;;
16531;SDS011;8378;57.698;11.958;2022-11-20T02:49:33;1.10;;;1.00;;
16531;SDS011;8378;57.698;11.958;2022-11-20T02:51:59;1.10;;;1.00;;
16531;SDS011;8378;57.698;11.958;2022-11-20T02:54:24;0.80;;;0.80;;
16531;SDS011;8378;57.698;11.958;2022-11-20T02:56:50;1.48;;;1.10;;
16531;SDS011;8378;57.698;11.958;2022-11-20T02:59:16;1.48;;;1.02;;
16531;SDS011;8378;57.698;11.958;2022-11-20T03:01:42;1.02;;;0.93;;
16531;SDS011;8378;57.698;11.958;2022-11-20T03:04:08;0.90;;;0.90;;
16531;SDS011;8378;57.698;11.958;2022-11-20T03:06:33;1.10;;;1.10;;
16531;SDS011;8378;57.698;11.958;2022-11-20T03:08:59;0.90;;;0.90;;
16531;SDS011;8378;57.698;11.958;2022-11-20T03:11:25;0.90;;;0.90;;
16531;SDS011;8378;57.698;11.958;2022-11-20T03:13:50;1.90;;;1.00;;
16531;SDS011;8378;57.698;11.958;2022-11-20T03:16:17;1.30;;;0.90;;
16531;SDS011;8378;57.698;11.958;2022-11-20T03:18:44;0.68;;;0.68;;
16531;SDS011;8378;57.698;11.958;2022-11-20T03:21:11;0.85;;;0.82;;
16531;SDS011;8378;57.698;11.958;2022-11-20T03:23:38;0.90;;;0.90;;
16531;SDS011;8378;57.698;11.958;2022-11-20T03:26:08;1.08;;;1.05;;
16531;SDS011;8378;57.698;11.958;2022-11-20T03:28:48;1.00;;;0.90;;
16531;SDS011;8378;57.698;11.958;2022-11-20T03:31:16;0.80;;;0.80;;
16531;SDS011;8378;57.698;11.958;2022-11-20T03:33:44;0.85;;;0.85;;
16531;SDS011;8378;57.698;11.958;2022-11-20T03:36:11;0.88;;;0.88;;
16531;SDS011;8378;57.698;11.958;2022-11-20T03:38:37;0.98;;;0.98;;
16531;SDS011;8378;57.698;11.958;2022-11-20T03:41:23;0.98;;;0.98;;
16531;SDS011;8378;57.698;11.958;2022-11-20T03:43:57;0.90;;;0.90;;
16531;SDS011;8378;57.698;11.958;2022-11-20T03:46:24;0.80;;;0.80;;
16531;SDS011;8378;57.698;11.958;2022-11-20T03:48:50;1.50;;;1.00;;
16531;SDS011;8378;57.698;11.958;2022-11-20T03:51:18;0.85;;;0.85;;
16531;SDS011;8378;57.698;11.958;2022-11-20T03:53:48;1.10;;;1.00;;
16531;SDS011;8378;57.698;11.958;2022-11-20T03:56:16;1.00;;;1.00;;
16531;SDS011;8378;57.698;11.958;2022-11-20T03:58:43;1.13;;;1.02;;
16531;SDS011;8378;57.698;11.958;2022-11-20T04:03:37;0.90;;;0.90;;
16531;SDS011;8378;57.698;11.958;2022-11-20T04:06:04;0.75;;;0.75;;
16531;SDS011;8378;57.698;11.958;2022-11-20T04:08:31;0.82;;;0.82;;
16531;SDS011;8378;57.698;11.958;2022-11-20T04:11:07;0.95;;;0.93;;
16531;SDS011;8378;57.698;11.958;2022-11-20T04:13:46;0.90;;;0.90;;
16531;SDS011;8378;57.698;11.958;2022-11-20T04:16:13;0.85;;;0.85;;
16531;SDS011;8378;57.698;11.958;2022-11-20T04:18:39;1.00;;;0.85;;
16531;SDS011;8378;57.698;11.958;2022-11-20T04:21:05;1.05;;;0.93;;
16531;SDS011;8378;57.698;11.958;2022-11-20T04:23:31;0.90;;;0.90;;
16531;SDS011;8378;57.698;11.958;2022-11-20T04:26:11;0.80;;;0.80;;
16531;SDS011;8378;57.698;11.958;2022-11-20T04:28:37;0.90;;;0.90;;
16531;SDS011;8378;57.698;11.958;2022-11-20T04:34:00;1.17;;;1.08;;
16531;SDS011;8378;57.698;11.958;2022-11-20T04:36:27;0.95;;;0.95;;
16531;SDS011;8378;57.698;11.958;2022-11-20T04:38:55;1.15;;;1.05;;
16531;SDS011;8378;57.698;11.958;2022-11-20T04:41:26;0.80;;;0.80;;
16531;SDS011;8378;57.698;11.958;2022-11-20T04:43:54;0.80;;;0.80;;
16531;SDS011;8378;57.698;11.958;2022-11-20T04:46:24;0.90;;;0.90;;
16531;SDS011;8378;57.698;11.958;2022-11-20T04:48:51;0.80;;;0.80;;
16531;SDS011;8378;57.698;11.958;2022-11-20T04:51:17;0.90;;;0.90;;
16531;SDS011;8378;57.698;11.958;2022-11-20T04:53:43;1.30;;;1.08;;
16531;SDS011;8378;57.698;11.958;2022-11-20T04:56:09;1.05;;;0.98;;
16531;SDS011;8378;57.698;11.958;2022-11-20T04:58:36;0.90;;;0.90;;
16531;SDS011;8378;57.698;11.958;2022-11-20T05:03:32;0.60;;;0.60;;
16531;SDS011;8378;57.698;11.958;2022-11-20T05:06:01;1.10;;;1.00;;
16531;SDS011;8378;57.698;11.958;2022-11-20T05:08:31;0.90;;;0.90;;
16531;SDS011;8378;57.698;11.958;2022-11-20T05:11:01;0.90;;;0.90;;
16531;SDS011;8378;57.698;11.958;2022-11-20T05:13:45;1.10;;;1.00;;
16531;SDS011;8378;57.698;11.958;2022-11-20T05:16:18;1.00;;;0.90;;
16531;SDS011;8378;57.698;11.958;2022-11-20T05:18:45;1.17;;;1.08;;
16531;SDS011;8378;57.698;11.958;2022-11-20T05:21:12;1.13;;;1.02;;
16531;SDS011;8378;57.698;11.958;2022-11-20T05:23:38;1.08;;;1.00;;
16531;SDS011;8378;57.698;11.958;2022-11-20T05:26:05;1.42;;;1.00;;
16531;SDS011;8378;57.698;11.958;2022-11-20T05:28:32;1.20;;;1.10;;
16531;SDS011;8378;57.698;11.958;2022-11-20T05:33:30;0.90;;;0.90;;
16531;SDS011;8378;57.698;11.958;2022-11-20T05:36:00;1.02;;;0.98;;
16531;SDS011;8378;57.698;11.958;2022-11-20T05:38:26;0.82;;;0.82;;
16531;SDS011;8378;57.698;11.958;2022-11-20T05:40:52;1.60;;;1.20;;
16531;SDS011;8378;57.698;11.958;2022-11-20T05:43:18;1.02;;;0.90;;
16531;SDS011;8378;57.698;11.958;2022-11-20T05:45:51;1.00;;;1.00;;
16531;SDS011;8378;57.698;11.958;2022-11-20T05:48:17;0.95;;;0.95;;
16531;SDS011;8378;57.698;11.958;2022-11-20T05:50:43;1.05;;;1.05;;
16531;SDS011;8378;57.698;11.958;2022-11-20T05:53:09;1.10;;;0.95;;
16531;SDS011;8378;57.698;11.958;2022-11-20T05:55:34;0.90;;;0.90;;
16531;SDS011;8378;57.698;11.958;2022-11-20T05:58:00;1.10;;;0.90;;
16531;SDS011;8378;57.698;11.958;2022-11-20T06:00:25;0.85;;;0.85;;
16531;SDS011;8378;57.698;11.958;2022-11-20T06:02:51;1.20;;;1.00;;
16531;SDS011;8378;57.698;11.958;2022-11-20T06:05:16;1.48;;;1.02;;
16531;SDS011;8378;57.698;11.958;2022-11-20T06:07:42;1.10;;;0.90;;
16531;SDS011;8378;57.698;11.958;2022-11-20T06:10:08;0.90;;;0.85;;
16531;SDS011;8378;57.698;11.958;2022-11-20T06:12:33;0.90;;;0.90;;
16531;SDS011;8378;57.698;11.958;2022-11-20T06:14:59;1.05;;;1.00;;
16531;SDS011;8378;57.698;11.958;2022-11-20T06:17:25;1.45;;;1.05;;
16531;SDS011;8378;57.698;11.958;2022-11-20T06:19:51;0.70;;;0.70;;
16531;SDS011;8378;57.698;11.958;2022-11-20T06:22:17;0.93;;;0.93;;
16531;SDS011;8378;57.698;11.958;2022-11-20T06:24:42;1.05;;;1.00;;
16531;SDS011;8378;57.698;11.958;2022-11-20T06:27:08;0.98;;;0.98;;
16531;SDS011;8378;57.698;11.958;2022-11-20T06:29:34;1.10;;;1.00;;
16531;SDS011;8378;57.698;11.958;2022-11-20T06:32:00;1.02;;;0.93;;
16531;SDS011;8378;57.698;11.958;2022-11-20T06:34:26;0.80;;;0.80;;
16531;SDS011;8378;57.698;11.958;2022-11-20T06:36:51;0.90;;;0.90;;
16531;SDS011;8378;57.698;11.958;2022-11-20T06:39:17;0.85;;;0.82;;
16531;SDS011;8378;57.698;11.958;2022-11-20T06:41:42;0.90;;;0.90;;
16531;SDS011;8378;57.698;11.958;2022-11-20T06:44:08;1.30;;;1.20;;
16531;SDS011;8378;57.698;11.958;2022-11-20T06:46:34;0.95;;;0.90;;
16531;SDS011;8378;57.698;11.958;2022-11-20T06:48:59;1.80;;;1.40;;
16531;SDS011;8378;57.698;11.958;2022-11-20T06:51:25;2.53;;;1.45;;
16531;SDS011;8378;57.698;11.958;2022-11-20T06:53:50;7.93;;;1.98;;
16531;SDS011;8378;57.698;11.958;2022-11-20T06:56:16;4.65;;;1.60;;
16531;SDS011;8378;57.698;11.958;2022-11-20T06:58:41;3.55;;;1.70;;
16531;SDS011;8378;57.698;11.958;2022-11-20T07:01:09;7.65;;;1.90;;
16531;SDS011;8378;57.698;11.958;2022-11-20T07:03:37;3.67;;;1.63;;
16531;SDS011;8378;57.698;11.958;2022-11-20T07:06:03;2.78;;;1.50;;
16531;SDS011;8378;57.698;11.958;2022-11-20T07:08:30;3.08;;;1.80;;
16531;SDS011;8378;57.698;11.958;2022-11-20T07:10:59;6.88;;;1.40;;
16531;SDS011;8378;57.698;11.958;2022-11-20T07:13:26;5.25;;;1.80;;
16531;SDS011;8378;57.698;11.958;2022-11-20T07:15:53;2.00;;;1.30;;
16531;SDS011;8378;57.698;11.958;2022-11-20T07:18:18;2.05;;;1.30;;
16531;SDS011;8378;57.698;11.958;2022-11-20T07:20:44;2.42;;;1.20;;
16531;SDS011;8378;57.698;11.958;2022-11-20T07:23:10;2.45;;;1.50;;
16531;SDS011;8378;57.698;11.958;2022-11-20T07:25:35;2.53;;;1.38;;
16531;SDS011;8378;57.698;11.958;2022-11-20T07:28:01;2.17;;;1.10;;
16531;SDS011;8378;57.698;11.958;2022-11-20T07:30:27;3.03;;;1.30;;
16531;SDS011;8378;57.698;11.958;2022-11-20T07:32:54;1.52;;;1.20;;
16531;SDS011;8378;57.698;11.958;2022-11-20T07:35:20;3.00;;;1.30;;
16531;SDS011;8378;57.698;11.958;2022-11-20T07:37:46;2.33;;;1.35;;
16531;SDS011;8378;57.698;11.958;2022-11-20T07:40:13;1.60;;;1.20;;
16531;SDS011;8378;57.698;11.958;2022-11-20T07:42:52;1.40;;;1.20;;
16531;SDS011;8378;57.698;11.958;2022-11-20T07:45:19;2.15;;;1.27;;
16531;SDS011;8378;57.698;11.958;2022-11-20T07:47:46;2.53;;;1.20;;
16531;SDS011;8378;57.698;11.958;2022-11-20T07:50:12;2.05;;;1.40;;
16531;SDS011;8378;57.698;11.958;2022-11-20T07:52:38;2.88;;;1.50;;
16531;SDS011;8378;57.698;11.958;2022-11-20T07:55:04;1.58;;;1.48;;
16531;SDS011;8378;57.698;11.958;2022-11-20T07:57:30;2.20;;;1.48;;
16531;SDS011;8378;57.698;11.958;2022-11-20T07:59:56;1.55;;;1.17;;
16531;SDS011;8378;57.698;11.958;2022-11-20T08:02:22;2.22;;;1.52;;
16531;SDS011;8378;57.698;11.958;2022-11-20T08:04:47;2.03;;;1.40;;
16531;SDS011;8378;57.698;11.958;2022-11-20T08:07:13;1.73;;;1.40;;
16531;SDS011;8378;57.698;11.958;2022-11-20T08:09:39;2.80;;;1.27;;
16531;SDS011;8378;57.698;11.958;2022-11-20T08:12:04;3.63;;;1.67;;
16531;SDS011;8378;57.698;11.958;2022-11-20T08:14:49;2.78;;;1.60;;
16531;SDS011;8378;57.698;11.958;2022-11-20T08:17:14;4.25;;;1.50;;
16531;SDS011;8378;57.698;11.958;2022-11-20T08:19:40;2.70;;;1.42;;
16531;SDS011;8378;57.698;11.958;2022-11-20T08:22:05;3.60;;;1.38;;
16531;SDS011;8378;57.698;11.958;2022-11-20T08:24:31;1.90;;;1.40;;
16531;SDS011;8378;57.698;11.958;2022-11-20T08:26:57;3.72;;;1.52;;
16531;SDS011;8378;57.698;11.958;2022-11-20T08:29:26;2.38;;;1.35;;
16531;SDS011;8378;57.698;11.958;2022-11-20T08:31:52;2.03;;;1.23;;
16531;SDS011;8378;57.698;11.958;2022-11-20T08:34:18;2.50;;;1.30;;
16531;SDS011;8378;57.698;11.958;2022-11-20T08:36:43;3.30;;;1.58;;
16531;SDS011;8378;57.698;11.958;2022-11-20T08:39:12;1.95;;;1.50;;
16531;SDS011;8378;57.698;11.958;2022-11-20T08:41:38;1.40;;;1.17;;
16531;SDS011;8378;57.698;11.958;2022-11-20T08:44:05;2.13;;;1.50;;
16531;SDS011;8378;57.698;11.958;2022-11-20T08:46:41;1.63;;;1.23;;
16531;SDS011;8378;57.698;11.958;2022-11-20T08:49:09;2.10;;;1.30;;
16531;SDS011;8378;57.698;11.958;2022-11-20T08:51:36;1.25;;;1.13;;
16531;SDS011;8378;57.698;11.958;2022-11-20T08:54:02;1.40;;;1.17;;
16531;SDS011;8378;57.698;11.958;2022-11-20T08:56:29;2.03;;;1.08;;
16531;SDS011;8378;57.698;11.958;2022-11-20T08:58:55;3.05;;;1.00;;
16531;SDS011;8378;57.698;11.958;2022-11-20T09:01:21;2.67;;;1.17;;
16531;SDS011;8378;57.698;11.958;2022-11-20T09:03:48;1.58;;;1.40;;
16531;SDS011;8378;57.698;11.958;2022-11-20T09:06:14;1.20;;;1.10;;
16531;SDS011;8378;57.698;11.958;2022-11-20T09:08:40;1.30;;;1.00;;
16531;SDS011;8378;57.698;11.958;2022-11-20T09:11:05;1.88;;;1.25;;
16531;SDS011;8378;57.698;11.958;2022-11-20T09:13:32;1.70;;;1.05;;
16531;SDS011;8378;57.698;11.958;2022-11-20T09:16:00;1.45;;;1.00;;
16531;SDS011;8378;57.698;11.958;2022-11-20T09:18:28;1.15;;;1.08;;
16531;SDS011;8378;57.698;11.958;2022-11-20T09:20:58;1.75;;;1.20;;
16531;SDS011;8378;57.698;11.958;2022-11-20T09:23:25;1.30;;;1.10;;
16531;SDS011;8378;57.698;11.958;2022-11-20T09:25:51;1.48;;;1.10;;
16531;SDS011;8378;57.698;11.958;2022-11-20T09:28:17;1.45;;;1.30;;
16531;SDS011;8378;57.698;11.958;2022-11-20T09:30:43;1.23;;;1.05;;
16531;SDS011;8378;57.698;11.958;2022-11-20T09:33:09;1.38;;;1.10;;
16531;SDS011;8378;57.698;11.958;2022-11-20T09:35:35;1.20;;;1.10;;
16531;SDS011;8378;57.698;11.958;2022-11-20T09:38:04;1.30;;;1.20;;
16531;SDS011;8378;57.698;11.958;2022-11-20T09:40:35;1.13;;;1.02;;
16531;SDS011;8378;57.698;11.958;2022-11-20T09:43:09;1.20;;;1.10;;
16531;SDS011;8378;57.698;11.958;2022-11-20T09:46:05;1.55;;;1.25;;
16531;SDS011;8378;57.698;11.958;2022-11-20T09:56:44;2.05;;;1.55;;
16531;SDS011;8378;57.698;11.958;2022-11-20T10:02:16;1.25;;;1.10;;
16531;SDS011;8378;57.698;11.958;2022-11-20T10:04:49;1.35;;;1.25;;
16531;SDS011;8378;57.698;11.958;2022-11-20T10:07:24;1.20;;;1.10;;
16531;SDS011;8378;57.698;11.958;2022-11-20T10:09:58;1.48;;;1.30;;
16531;SDS011;8378;57.698;11.958;2022-11-20T10:18:08;1.40;;;1.30;;
16531;SDS011;8378;57.698;11.958;2022-11-20T10:26:25;1.52;;;1.17;;
16531;SDS011;8378;57.698;11.958;2022-11-20T10:29:12;1.40;;;1.30;;
16531;SDS011;8378;57.698;11.958;2022-11-20T10:31:41;1.50;;;1.40;;
16531;SDS011;8378;57.698;11.958;2022-11-20T10:34:15;1.40;;;1.30;;
16531;SDS011;8378;57.698;11.958;2022-11-20T10:36:47;1.33;;;1.23;;
16531;SDS011;8378;57.698;11.958;2022-11-20T10:41:57;1.30;;;1.20;;
16531;SDS011;8378;57.698;11.958;2022-11-20T10:44:28;1.23;;;1.13;;
16531;SDS011;8378;57.698;11.958;2022-11-20T10:47:17;1.30;;;1.20;;
16531;SDS011;8378;57.698;11.958;2022-11-20T10:49:48;1.20;;;1.10;;
16531;SDS011;8378;57.698;11.958;2022-11-20T10:53:19;1.33;;;1.23;;
16531;SDS011;8378;57.698;11.958;2022-11-20T10:55:27;1.30;;;1.20;;
16531;SDS011;8378;57.698;11.958;2022-11-20T11:00:30;1.38;;;1.27;;
16531;SDS011;8378;57.698;11.958;2022-11-20T11:02:57;1.23;;;1.13;;
16531;SDS011;8378;57.698;11.958;2022-11-20T11:07:57;1.52;;;1.42;;
16531;SDS011;8378;57.698;11.958;2022-11-20T11:12:53;1.23;;;1.13;;
16531;SDS011;8378;57.698;11.958;2022-11-20T11:17:53;1.35;;;1.25;;
16531;SDS011;8378;57.698;11.958;2022-11-20T11:20:20;1.55;;;1.30;;
16531;SDS011;8378;57.698;11.958;2022-11-20T11:22:54;2.38;;;1.33;;
16531;SDS011;8378;57.698;11.958;2022-11-20T11:28:04;1.48;;;1.27;;
16531;SDS011;8378;57.698;11.958;2022-11-20T11:30:43;1.48;;;1.38;;
16531;SDS011;8378;57.698;11.958;2022-11-20T11:33:10;1.50;;;1.40;;
16531;SDS011;8378;57.698;11.958;2022-11-20T11:35:52;1.40;;;1.30;;
16531;SDS011;8378;57.698;11.958;2022-11-20T11:38:28;1.25;;;1.15;;
16531;SDS011;8378;57.698;11.958;2022-11-20T11:40:57;1.45;;;1.35;;
16531;SDS011;8378;57.698;11.958;2022-11-20T11:43:26;1.38;;;1.27;;
16531;SDS011;8378;57.698;11.958;2022-11-20T11:46:23;1.50;;;1.30;;
16531;SDS011;8378;57.698;11.958;2022-11-20T11:48:59;1.63;;;1.10;;
16531;SDS011;8378;57.698;11.958;2022-11-20T11:51:33;1.40;;;1.30;;
16531;SDS011;8378;57.698;11.958;2022-11-20T11:54:50;1.83;;;1.30;;
16531;SDS011;8378;57.698;11.958;2022-11-20T11:56:55;1.20;;;1.10;;
16531;SDS011;8378;57.698;11.958;2022-11-20T12:02:31;1.30;;;1.20;;
16531;SDS011;8378;57.698;11.958;2022-11-20T12:05:20;1.40;;;1.30;;
16531;SDS011;8378;57.698;11.958;2022-11-20T12:12:56;1.27;;;1.17;;
16531;SDS011;8378;57.698;11.958;2022-11-20T12:15:30;1.33;;;1.23;;
16531;SDS011;8378;57.698;11.958;2022-11-20T12:17:59;1.20;;;1.10;;
16531;SDS011;8378;57.698;11.958;2022-11-20T12:20:35;1.30;;;1.20;;
16531;SDS011;8378;57.698;11.958;2022-11-20T12:23:18;1.42;;;1.33;;
16531;SDS011;8378;57.698;11.958;2022-11-20T12:25:56;1.20;;;1.10;;
16531;SDS011;8378;57.698;11.958;2022-11-20T12:31:10;1.10;;;1.00;;
16531;SDS011;8378;57.698;11.958;2022-11-20T12:33:52;1.15;;;1.05;;
16531;SDS011;8378;57.698;11.958;2022-11-20T12:36:52;1.30;;;1.20;;
16531;SDS011;8378;57.698;11.958;2022-11-20T12:39:43;1.20;;;1.10;;
16531;SDS011;8378;57.698;11.958;2022-11-20T12:45:22;1.30;;;1.20;;
16531;SDS011;8378;57.698;11.958;2022-11-20T12:53:29;0.77;;;0.75;;
16531;SDS011;8378;57.698;11.958;2022-11-20T13:01:50;0.90;;;0.90;;
16531;SDS011;8378;57.698;11.958;2022-11-20T13:07:04;1.40;;;1.30;;
16531;SDS011;8378;57.698;11.958;2022-11-20T13:09:32;1.20;;;1.10;;
16531;SDS011;8378;57.698;11.958;2022-11-20T13:12:10;1.30;;;1.20;;
16531;SDS011;8378;57.698;11.958;2022-11-20T13:17:52;1.67;;;1.00;;
16531;SDS011;8378;57.698;11.958;2022-11-20T13:20:22;1.10;;;1.00;;
16531;SDS011;8378;57.698;11.958;2022-11-20T13:22:49;1.48;;;1.20;;
16531;SDS011;8378;57.698;11.958;2022-11-20T13:28:03;1.17;;;1.08;;
16531;SDS011;8378;57.698;11.958;2022-11-20T13:30:50;1.15;;;1.05;;
16531;SDS011;8378;57.698;11.958;2022-11-20T13:36:07;2.97;;;1.40;;
16531;SDS011;8378;57.698;11.958;2022-11-20T13:38:47;1.40;;;1.25;;
16531;SDS011;8378;57.698;11.958;2022-11-20T13:41:25;1.30;;;1.20;;
16531;SDS011;8378;57.698;11.958;2022-11-20T13:46:35;1.33;;;1.23;;
16531;SDS011;8378;57.698;11.958;2022-11-20T13:49:25;0.90;;;0.90;;
16531;SDS011;8378;57.698;11.958;2022-11-20T13:51:51;1.30;;;1.20;;
16531;SDS011;8378;57.698;11.958;2022-11-20T14:00:25;1.40;;;1.23;;
16531;SDS011;8378;57.698;11.958;2022-11-20T14:02:59;1.38;;;1.20;;
16531;SDS011;8378;57.698;11.958;2022-11-20T14:05:26;1.15;;;1.05;;
16531;SDS011;8378;57.698;11.958;2022-11-20T14:07:52;2.17;;;1.33;;
16531;SDS011;8378;57.698;11.958;2022-11-20T14:10:20;1.20;;;1.10;;
16531;SDS011;8378;57.698;11.958;2022-11-20T14:12:45;1.27;;;1.17;;
16531;SDS011;8378;57.698;11.958;2022-11-20T14:15:44;1.65;;;1.23;;
16531;SDS011;8378;57.698;11.958;2022-11-20T14:18:12;1.20;;;1.10;;
16531;SDS011;8378;57.698;11.958;2022-11-20T14:20:47;1.30;;;1.20;;
16531;SDS011;8378;57.698;11.958;2022-11-20T14:23:22;1.38;;;1.27;;
16531;SDS011;8378;57.698;11.958;2022-11-20T14:25:52;1.13;;;1.02;;
16531;SDS011;8378;57.698;11.958;2022-11-20T14:28:20;1.15;;;1.05;;
16531;SDS011;8378;57.698;11.958;2022-11-20T14:30:51;1.40;;;1.30;;
16531;SDS011;8378;57.698;11.958;2022-11-20T14:33:17;1.40;;;1.30;;
16531;SDS011;8378;57.698;11.958;2022-11-20T14:35:48;1.20;;;1.10;;
16531;SDS011;8378;57.698;11.958;2022-11-20T14:38:16;1.55;;;1.38;;
16531;SDS011;8378;57.698;11.958;2022-11-20T14:40:46;1.23;;;1.13;;
16531;SDS011;8378;57.698;11.958;2022-11-20T14:46:08;1.40;;;1.30;;
16531;SDS011;8378;57.698;11.958;2022-11-20T14:51:05;1.13;;;1.02;;
16531;SDS011;8378;57.698;11.958;2022-11-20T14:53:35;1.05;;;1.00;;
16531;SDS011;8378;57.698;11.958;2022-11-20T14:56:01;1.27;;;1.17;;
16531;SDS011;8378;57.698;11.958;2022-11-20T14:58:28;1.40;;;1.30;;
16531;SDS011;8378;57.698;11.958;2022-11-20T15:01:06;1.33;;;1.23;;
16531;SDS011;8378;57.698;11.958;2022-11-20T15:05:59;1.40;;;1.30;;
16531;SDS011;8378;57.698;11.958;2022-11-20T15:08:25;1.30;;;1.20;;
16531;SDS011;8378;57.698;11.958;2022-11-20T15:10:51;1.60;;;1.50;;
16531;SDS011;8378;57.698;11.958;2022-11-20T15:13:31;1.88;;;1.20;;
16531;SDS011;8378;57.698;11.958;2022-11-20T15:16:00;1.63;;;1.20;;
16531;SDS011;8378;57.698;11.958;2022-11-20T15:18:27;1.40;;;1.30;;
16531;SDS011;8378;57.698;11.958;2022-11-20T15:20:56;1.30;;;1.20;;
16531;SDS011;8378;57.698;11.958;2022-11-20T15:23:25;1.30;;;1.20;;
16531;SDS011;8378;57.698;11.958;2022-11-20T15:25:52;1.40;;;1.30;;
16531;SDS011;8378;57.698;11.958;2022-11-20T15:28:23;1.40;;;1.30;;
16531;SDS011;8378;57.698;11.958;2022-11-20T15:30:55;1.52;;;1.33;;
16531;SDS011;8378;57.698;11.958;2022-11-20T15:33:21;1.60;;;1.50;;
16531;SDS011;8378;57.698;11.958;2022-11-20T15:35:47;1.70;;;1.60;;
16531;SDS011;8378;57.698;11.958;2022-11-20T15:38:13;1.52;;;1.40;;
16531;SDS011;8378;57.698;11.958;2022-11-20T15:40:39;1.70;;;1.60;;
16531;SDS011;8378;57.698;11.958;2022-11-20T15:43:04;1.50;;;1.40;;
16531;SDS011;8378;57.698;11.958;2022-11-20T15:45:44;1.50;;;1.30;;
16531;SDS011;8378;57.698;11.958;2022-11-20T15:48:20;1.50;;;1.40;;
16531;SDS011;8378;57.698;11.958;2022-11-20T15:53:23;1.77;;;1.58;;
16531;SDS011;8378;57.698;11.958;2022-11-20T15:55:49;1.50;;;1.30;;
16531;SDS011;8378;57.698;11.958;2022-11-20T15:58:15;1.58;;;1.48;;
16531;SDS011;8378;57.698;11.958;2022-11-20T16:00:43;1.90;;;1.65;;
16531;SDS011;8378;57.698;11.958;2022-11-20T16:03:12;1.40;;;1.30;;
16531;SDS011;8378;57.698;11.958;2022-11-20T16:05:39;1.63;;;1.52;;
16531;SDS011;8378;57.698;11.958;2022-11-20T16:08:05;1.55;;;1.45;;
16531;SDS011;8378;57.698;11.958;2022-11-20T16:10:30;1.60;;;1.50;;
16531;SDS011;8378;57.698;11.958;2022-11-20T16:12:56;1.75;;;1.65;;
16531;SDS011;8378;57.698;11.958;2022-11-20T16:15:40;1.45;;;1.35;;
16531;SDS011;8378;57.698;11.958;2022-11-20T16:18:12;1.40;;;1.30;;
16531;SDS011;8378;57.698;11.958;2022-11-20T16:20:40;1.60;;;1.50;;
16531;SDS011;8378;57.698;11.958;2022-11-20T16:23:06;1.50;;;1.40;;
16531;SDS011;8378;57.698;11.958;2022-11-20T16:25:32;1.55;;;1.30;;
16531;SDS011;8378;57.698;11.958;2022-11-20T16:27:58;1.50;;;1.40;;
16531;SDS011;8378;57.698;11.958;2022-11-20T16:30:24;1.40;;;1.30;;
16531;SDS011;8378;57.698;11.958;2022-11-20T16:32:50;1.30;;;1.20;;
16531;SDS011;8378;57.698;11.958;2022-11-20T16:35:15;1.50;;;1.30;;
16531;SDS011;8378;57.698;11.958;2022-11-20T16:37:41;1.60;;;1.50;;
16531;SDS011;8378;57.698;11.958;2022-11-20T16:40:08;1.52;;;1.42;;
16531;SDS011;8378;57.698;11.958;2022-11-20T16:42:35;1.48;;;1.38;;
16531;SDS011;8378;57.698;11.958;2022-11-20T16:45:02;1.30;;;1.20;;
16531;SDS011;8378;57.698;11.958;2022-11-20T16:47:28;1.50;;;1.40;;
16531;SDS011;8378;57.698;11.958;2022-11-20T16:49:57;1.20;;;1.10;;
16531;SDS011;8378;57.698;11.958;2022-11-20T16:52:22;1.60;;;1.40;;